createdAt,value
2018-12-17T00:02:03.273Z,4.60
2018-12-17T00:04:31.293Z,4.30
2018-12-17T00:06:58.994Z,4.60
2018-12-17T00:09:26.667Z,4.90
2018-12-17T00:11:54.540Z,4.80
2018-12-17T00:14:22.164Z,4.90
2018-12-17T00:16:49.957Z,4.70
2018-12-17T00:19:18.042Z,5.00
2018-12-17T00:21:45.806Z,5.40
2018-12-17T00:24:13.889Z,4.70
2018-12-17T00:26:41.481Z,5.00
2018-12-17T00:29:09.531Z,4.70
2018-12-17T00:31:37.233Z,4.70
2018-12-17T00:34:04.929Z,4.90
2018-12-17T00:36:32.689Z,4.70
2018-12-17T00:39:00.505Z,4.60
2018-12-17T00:41:28.207Z,4.60
2018-12-17T00:43:55.853Z,4.80
2018-12-17T00:46:23.530Z,4.70
2018-12-17T00:48:51.299Z,4.90
2018-12-17T00:51:19.274Z,4.60
2018-12-17T00:53:46.957Z,4.50
2018-12-17T00:56:14.657Z,4.60
2018-12-17T00:58:42.288Z,4.60
2018-12-17T01:01:10.005Z,4.80
2018-12-17T01:03:37.721Z,4.60
2018-12-17T01:06:05.381Z,4.60
2018-12-17T01:08:33.021Z,4.60
2018-12-17T01:11:00.658Z,4.70
2018-12-17T01:13:28.369Z,4.90
2018-12-17T01:16:02.719Z,4.80
2018-12-17T01:18:30.473Z,4.60
2018-12-17T01:20:58.147Z,4.80
2018-12-17T01:23:25.883Z,4.60
2018-12-17T01:25:53.781Z,4.70
2018-12-17T01:28:22.377Z,4.80
2018-12-17T01:30:50.323Z,4.80
2018-12-17T01:33:18.010Z,4.50
2018-12-17T01:35:45.608Z,4.70
2018-12-17T01:38:13.312Z,4.70
2018-12-17T01:40:41.002Z,4.50
2018-12-17T01:43:08.745Z,4.80
2018-12-17T01:45:36.424Z,4.50
2018-12-17T01:48:04.129Z,4.70
2018-12-17T01:50:31.749Z,4.60
2018-12-17T01:52:59.391Z,4.40
2018-12-17T01:55:27.050Z,4.40
2018-12-17T01:57:54.742Z,4.50
2018-12-17T02:00:22.398Z,4.50
2018-12-17T02:02:50.101Z,4.60
2018-12-17T02:05:17.728Z,4.40
2018-12-17T02:07:45.406Z,4.40
2018-12-17T02:10:13.077Z,4.60
2018-12-17T02:12:40.715Z,4.30
2018-12-17T02:15:08.393Z,4.70
2018-12-17T02:17:36.049Z,4.60
2018-12-17T02:20:04.386Z,3.90
2018-12-17T02:22:32.013Z,4.40
2018-12-17T02:24:59.646Z,4.50
2018-12-17T02:27:27.304Z,4.70
2018-12-17T02:29:55.081Z,4.70
2018-12-17T02:32:22.753Z,4.60
2018-12-17T02:34:50.519Z,4.50
2018-12-17T02:37:18.234Z,4.60
2018-12-17T02:39:45.933Z,4.60
2018-12-17T02:42:13.581Z,4.50
2018-12-17T02:44:41.266Z,4.40
2018-12-17T02:47:08.903Z,4.40
2018-12-17T02:49:36.934Z,4.50
2018-12-17T02:52:04.671Z,4.40
2018-12-17T02:54:32.481Z,4.40
2018-12-17T02:57:00.206Z,4.40
2018-12-17T02:59:27.892Z,4.40
2018-12-17T03:01:55.525Z,4.70
2018-12-17T03:04:23.199Z,4.50
2018-12-17T03:06:51.002Z,4.30
2018-12-17T03:09:18.674Z,4.20
2018-12-17T03:11:46.377Z,4.20
2018-12-17T03:14:14.091Z,4.30
2018-12-17T03:16:41.824Z,4.40
2018-12-17T03:19:09.533Z,4.60
2018-12-17T03:21:37.289Z,4.50
2018-12-17T03:24:05.273Z,4.70
2018-12-17T03:26:32.914Z,4.50
2018-12-17T03:29:00.569Z,4.70
2018-12-17T03:31:28.474Z,4.40
2018-12-17T03:33:56.218Z,4.40
2018-12-17T03:36:23.863Z,4.40
2018-12-17T03:38:51.575Z,4.50
2018-12-17T03:41:19.325Z,4.50
2018-12-17T03:43:46.981Z,4.60
2018-12-17T03:46:14.745Z,4.50
2018-12-17T03:48:42.393Z,4.50
2018-12-17T03:51:10.085Z,4.40
2018-12-17T03:53:37.722Z,4.50
2018-12-17T03:56:05.461Z,4.60
2018-12-17T03:58:33.157Z,4.70
2018-12-17T04:01:00.866Z,4.60
2018-12-17T04:03:28.562Z,4.70
2018-12-17T04:05:57.973Z,4.60
2018-12-17T04:08:25.529Z,4.70
2018-12-17T04:10:53.853Z,4.60
2018-12-17T04:13:21.543Z,4.60
2018-12-17T04:15:49.209Z,4.60
2018-12-17T04:18:16.945Z,4.60
2018-12-17T04:20:44.473Z,4.60
2018-12-17T04:23:12.145Z,4.70
2018-12-17T04:25:39.757Z,4.80
2018-12-17T04:28:09.508Z,4.70
2018-12-17T04:30:37.513Z,4.60
2018-12-17T04:33:05.218Z,4.50
2018-12-17T04:35:32.889Z,4.50
2018-12-17T04:38:00.594Z,4.50
2018-12-17T04:40:28.309Z,4.50
2018-12-17T04:42:55.974Z,4.50
2018-12-17T04:45:23.621Z,4.50
2018-12-17T04:47:51.318Z,4.70
2018-12-17T04:50:18.980Z,4.50
2018-12-17T04:52:46.693Z,4.50
2018-12-17T04:55:14.432Z,4.40
2018-12-17T04:57:42.199Z,4.40
2018-12-17T05:00:10.042Z,4.50
2018-12-17T05:02:37.589Z,4.40
2018-12-17T05:05:06.257Z,4.50
2018-12-17T05:07:34.015Z,4.50
2018-12-17T05:10:01.760Z,4.50
2018-12-17T05:12:29.467Z,4.50
2018-12-17T05:14:59.297Z,4.60
2018-12-17T05:17:27.989Z,4.50
2018-12-17T05:19:55.609Z,4.40
2018-12-17T05:22:23.285Z,4.50
2018-12-17T05:24:50.957Z,4.90
2018-12-17T05:27:18.689Z,4.80
2018-12-17T05:29:46.328Z,4.50
2018-12-17T05:32:13.985Z,4.80
2018-12-17T05:34:41.706Z,4.70
2018-12-17T05:37:09.336Z,4.80
2018-12-17T05:39:37.027Z,5.00
2018-12-17T05:42:04.856Z,5.00
2018-12-17T05:44:32.469Z,4.80
2018-12-17T05:47:00.234Z,4.50
2018-12-17T05:49:27.849Z,5.00
2018-12-17T05:51:55.509Z,4.70
2018-12-17T05:54:23.785Z,4.90
2018-12-17T05:56:51.517Z,4.70
2018-12-17T05:59:19.196Z,4.80
2018-12-17T06:01:46.855Z,4.90
2018-12-17T06:04:14.585Z,5.00
2018-12-17T06:06:42.378Z,5.00
2018-12-17T06:09:12.237Z,4.90
2018-12-17T06:11:40.318Z,4.90
2018-12-17T06:14:08.001Z,4.90
2018-12-17T06:16:35.654Z,4.90
2018-12-17T06:19:03.661Z,4.90
2018-12-17T06:21:31.364Z,5.20
2018-12-17T06:23:59.044Z,4.90
2018-12-17T06:26:26.786Z,5.10
2018-12-17T06:28:54.429Z,4.90
2018-12-17T06:31:22.042Z,5.10
2018-12-17T06:33:49.705Z,5.00
2018-12-17T06:36:17.477Z,5.20
2018-12-17T06:38:45.095Z,4.70
2018-12-17T06:41:12.829Z,4.90
2018-12-17T06:43:40.575Z,5.00
2018-12-17T06:46:08.286Z,5.00
2018-12-17T06:48:36.500Z,4.90
2018-12-17T06:51:04.228Z,5.20
2018-12-17T06:56:12.065Z,5.10
2018-12-17T06:58:39.655Z,5.10
2018-12-17T07:01:07.345Z,4.90
2018-12-17T07:03:35.016Z,5.00
2018-12-17T07:06:02.654Z,5.00
2018-12-17T07:08:30.417Z,4.60
2018-12-17T07:10:58.285Z,5.00
2018-12-17T07:13:25.928Z,4.70
2018-12-17T07:15:53.597Z,4.60
2018-12-17T07:18:21.281Z,4.70
2018-12-17T07:20:49.044Z,4.50
2018-12-17T07:23:16.761Z,4.70
2018-12-17T07:25:44.465Z,4.90
2018-12-17T07:28:12.131Z,4.50
2018-12-17T07:30:39.781Z,4.80
2018-12-17T07:33:07.421Z,4.80
2018-12-17T07:35:35.118Z,4.60
2018-12-17T07:38:02.801Z,4.80
2018-12-17T07:40:30.394Z,4.50
2018-12-17T07:42:58.131Z,4.60
2018-12-17T07:45:25.906Z,4.40
2018-12-17T07:47:53.816Z,4.70
2018-12-17T07:50:21.451Z,4.50
2018-12-17T07:52:49.169Z,4.60
2018-12-17T07:55:16.841Z,4.50
2018-12-17T07:57:44.765Z,4.80
2018-12-17T08:00:12.877Z,4.20
2018-12-17T08:02:40.570Z,5.00
2018-12-17T08:05:08.244Z,4.70
2018-12-17T08:07:35.966Z,4.70
2018-12-17T08:10:04.279Z,4.70
2018-12-17T08:12:31.936Z,4.90
2018-12-17T08:14:59.610Z,4.70
2018-12-17T08:17:27.263Z,5.00
2018-12-17T08:19:54.858Z,4.70
2018-12-17T08:22:22.737Z,4.80
2018-12-17T08:24:50.981Z,4.70
2018-12-17T08:27:18.854Z,4.80
2018-12-17T08:29:46.489Z,4.80
2018-12-17T08:32:14.218Z,4.50
2018-12-17T08:34:41.935Z,4.80
2018-12-17T08:37:09.621Z,4.80
2018-12-17T08:39:37.314Z,4.50
2018-12-17T08:42:04.869Z,4.90
2018-12-17T08:44:32.634Z,4.80
2018-12-17T08:47:00.344Z,4.70
2018-12-17T08:49:28.017Z,5.10
2018-12-17T08:51:55.656Z,5.10
2018-12-17T08:54:23.587Z,4.90
2018-12-17T08:56:51.237Z,4.80
2018-12-17T08:59:18.837Z,4.80
2018-12-17T09:01:46.756Z,5.20
2018-12-17T09:04:14.429Z,5.20
2018-12-17T09:06:42.127Z,4.90
2018-12-17T09:09:09.795Z,5.10
2018-12-17T09:11:37.480Z,4.90
2018-12-17T09:14:05.288Z,5.10
2018-12-17T09:16:32.925Z,5.00
2018-12-17T09:19:00.601Z,5.00
2018-12-17T09:21:28.325Z,5.00
2018-12-17T09:23:55.917Z,5.00
2018-12-17T09:26:23.717Z,5.00
2018-12-17T09:28:51.401Z,4.90
2018-12-17T09:31:19.093Z,5.10
2018-12-17T09:33:46.827Z,5.10
2018-12-17T09:36:14.793Z,5.00
2018-12-17T09:38:42.662Z,5.10
2018-12-17T09:41:10.410Z,5.10
2018-12-17T09:43:38.134Z,5.20
2018-12-17T09:46:05.877Z,4.90
2018-12-17T09:48:33.557Z,4.90
2018-12-17T09:51:01.181Z,4.90
2018-12-17T09:53:28.837Z,5.00
2018-12-17T09:55:56.847Z,4.80
2018-12-17T09:58:24.541Z,4.80
2018-12-17T10:00:52.230Z,4.90
2018-12-17T10:03:19.929Z,4.90
2018-12-17T10:05:47.601Z,4.80
2018-12-17T10:08:15.254Z,4.70
2018-12-17T10:10:42.941Z,4.70
2018-12-17T10:13:10.623Z,4.60
2018-12-17T10:15:38.353Z,5.00
2018-12-17T10:18:06.121Z,4.80
2018-12-17T10:20:33.770Z,4.70
2018-12-17T10:23:01.697Z,4.90
2018-12-17T10:25:29.364Z,4.60
2018-12-17T10:27:57.060Z,4.70
2018-12-17T10:30:24.770Z,5.00
2018-12-17T10:32:52.617Z,4.70
2018-12-17T10:35:20.461Z,4.70
2018-12-17T10:37:48.126Z,4.90
2018-12-17T10:40:15.953Z,4.60
2018-12-17T10:42:43.750Z,4.70
2018-12-17T10:45:11.517Z,4.70
2018-12-17T10:47:39.225Z,4.50
2018-12-17T10:50:07.496Z,4.80
2018-12-17T10:52:35.149Z,4.60
2018-12-17T10:55:03.237Z,4.60
2018-12-17T10:57:30.940Z,4.60
2018-12-17T10:59:58.634Z,4.50
2018-12-17T11:02:34.554Z,4.80
2018-12-17T11:05:10.009Z,4.70
2018-12-17T11:07:37.822Z,4.80
2018-12-17T11:10:06.380Z,4.60
2018-12-17T11:12:34.097Z,4.80
2018-12-17T11:15:01.785Z,5.00
2018-12-17T11:17:29.521Z,5.00
2018-12-17T11:19:57.130Z,4.90
2018-12-17T11:22:24.833Z,4.80
2018-12-17T11:24:52.508Z,4.60
2018-12-17T11:27:20.163Z,4.70
2018-12-17T11:29:47.894Z,4.90
2018-12-17T11:32:15.518Z,4.80
2018-12-17T11:34:43.185Z,4.80
2018-12-17T11:37:10.983Z,4.80
2018-12-17T11:39:38.817Z,4.60
2018-12-17T11:42:06.454Z,4.70
2018-12-17T11:44:34.015Z,4.90
2018-12-17T11:47:01.659Z,5.10
2018-12-17T11:49:29.305Z,4.90
2018-12-17T11:51:56.977Z,5.20
2018-12-17T11:54:24.671Z,5.30
2018-12-17T11:58:08.155Z,5.00
2018-12-17T12:00:36.101Z,5.10
2018-12-17T12:03:03.813Z,5.20
2018-12-17T12:05:31.563Z,4.90
2018-12-17T12:07:59.276Z,5.10
2018-12-17T12:10:26.941Z,5.10
2018-12-17T12:12:54.953Z,5.10
2018-12-17T12:15:22.657Z,5.20
2018-12-17T12:17:50.293Z,5.10
2018-12-17T12:20:17.917Z,5.20
2018-12-17T12:22:45.540Z,5.20
2018-12-17T12:25:13.261Z,5.00
2018-12-17T12:27:40.910Z,5.30
2018-12-17T12:30:09.548Z,5.40
2018-12-17T12:32:37.225Z,5.20
2018-12-17T12:35:05.756Z,5.20
2018-12-17T12:37:33.554Z,5.50
2018-12-17T12:40:01.309Z,5.30
2018-12-17T12:42:28.982Z,5.10
2018-12-17T12:44:56.708Z,5.40
2018-12-17T12:47:24.365Z,5.40
2018-12-17T12:49:52.062Z,5.30
2018-12-17T12:52:19.785Z,5.60
2018-12-17T12:54:47.485Z,5.30
2018-12-17T12:57:15.177Z,5.30
2018-12-17T12:59:42.929Z,5.40
2018-12-17T13:02:10.876Z,5.60
2018-12-17T13:04:38.570Z,5.20
2018-12-17T13:07:06.242Z,5.50
2018-12-17T13:09:33.946Z,5.40
2018-12-17T13:12:01.562Z,5.50
2018-12-17T13:14:29.325Z,5.80
2018-12-17T13:16:56.842Z,5.60
2018-12-17T13:19:24.493Z,5.70
2018-12-17T13:21:52.301Z,5.80
2018-12-17T13:24:20.037Z,5.60
2018-12-17T13:26:47.721Z,5.70
2018-12-17T13:29:15.440Z,5.50
2018-12-17T13:31:43.170Z,5.80
2018-12-17T13:34:10.860Z,5.60
2018-12-17T13:36:38.531Z,5.70
2018-12-17T13:39:06.924Z,5.80
2018-12-17T13:41:34.721Z,5.60
2018-12-17T13:44:02.407Z,5.80
2018-12-17T13:46:29.982Z,5.80
2018-12-17T13:48:57.690Z,5.80
2018-12-17T13:51:30.870Z,6.20
2018-12-17T13:53:59.730Z,6.00
2018-12-17T13:56:28.149Z,6.10
2018-12-17T13:58:55.924Z,6.00
2018-12-17T14:01:23.608Z,6.00
2018-12-17T14:03:51.318Z,5.90
2018-12-17T14:06:18.985Z,6.10
2018-12-17T14:08:46.669Z,6.00
2018-12-17T14:11:14.452Z,5.90
2018-12-17T14:13:42.129Z,5.40
2018-12-17T14:16:13.935Z,6.00
2018-12-17T14:18:47.960Z,5.90
2018-12-17T14:21:21.389Z,6.10
2018-12-17T14:23:48.974Z,5.80
2018-12-17T14:26:16.635Z,5.80
2018-12-17T14:28:44.434Z,5.70
2018-12-17T14:31:12.221Z,5.80
2018-12-17T14:33:40.018Z,5.80
2018-12-17T14:36:09.306Z,5.80
2018-12-17T14:38:38.243Z,6.40
2018-12-17T14:41:06.321Z,5.80
2018-12-17T14:43:34.434Z,5.20
2018-12-17T14:46:02.421Z,6.10
2018-12-17T14:48:30.169Z,5.90
2018-12-17T14:50:57.846Z,5.80
2018-12-17T14:53:25.557Z,6.20
2018-12-17T14:55:53.357Z,5.90
2018-12-17T14:58:21.155Z,6.10
2018-12-17T15:00:48.870Z,6.00
2018-12-17T15:03:16.510Z,5.30
2018-12-17T15:05:44.288Z,6.10
2018-12-17T15:08:11.977Z,5.40
2018-12-17T15:10:39.750Z,5.90
2018-12-17T15:13:07.425Z,5.80
2018-12-17T15:15:35.151Z,6.00
2018-12-17T15:18:02.853Z,6.10
2018-12-17T15:20:30.443Z,5.90
2018-12-17T15:22:58.103Z,6.10
2018-12-17T15:25:25.860Z,6.10
2018-12-17T15:27:53.550Z,6.00
2018-12-17T15:30:21.446Z,6.00
2018-12-17T15:32:49.295Z,6.10
2018-12-17T15:35:17.053Z,6.10
2018-12-17T15:37:44.781Z,6.20
2018-12-17T15:40:12.412Z,6.00
2018-12-17T15:42:40.998Z,6.10
2018-12-17T15:45:08.954Z,5.90
2018-12-17T15:47:36.933Z,6.20
2018-12-17T15:50:04.805Z,6.10
2018-12-17T15:52:32.609Z,6.20
2018-12-17T15:55:00.300Z,6.40
2018-12-17T15:57:27.990Z,6.30
2018-12-17T15:59:55.718Z,6.10
2018-12-17T16:02:23.567Z,6.20
2018-12-17T16:04:51.289Z,6.30
2018-12-17T16:07:18.983Z,6.10
2018-12-17T16:09:46.769Z,5.90
2018-12-17T16:12:14.456Z,6.20
2018-12-17T16:14:42.181Z,6.20
2018-12-17T16:17:09.926Z,5.90
2018-12-17T16:19:37.569Z,5.80
2018-12-17T16:22:05.333Z,6.10
2018-12-17T16:24:33.021Z,5.90
2018-12-17T16:27:00.739Z,6.20
2018-12-17T16:29:28.741Z,5.90
2018-12-17T16:31:57.536Z,6.10
2018-12-17T16:34:25.537Z,6.10
2018-12-17T16:36:53.490Z,6.00
2018-12-17T16:39:21.161Z,5.80
2018-12-17T16:41:49.246Z,5.90
2018-12-17T16:44:17.054Z,6.00
2018-12-17T16:46:44.853Z,6.20
2018-12-17T16:49:12.514Z,6.00
2018-12-17T16:51:40.191Z,5.90
2018-12-17T16:54:07.966Z,5.90
2018-12-17T16:56:35.691Z,6.20
2018-12-17T16:59:03.606Z,6.00
2018-12-17T17:01:31.231Z,5.90
2018-12-17T17:03:58.833Z,6.20
2018-12-17T17:06:26.575Z,6.00
2018-12-17T17:08:54.372Z,6.00
2018-12-17T17:11:22.093Z,6.20
2018-12-17T17:13:49.653Z,6.20
2018-12-17T17:16:17.500Z,6.20
2018-12-17T17:18:45.112Z,6.20
2018-12-17T17:21:12.805Z,6.30
2018-12-17T17:23:40.557Z,6.30
2018-12-17T17:26:08.266Z,6.30
2018-12-17T17:28:35.961Z,6.10
2018-12-17T17:31:03.649Z,6.20
2018-12-17T17:33:31.217Z,6.20
2018-12-17T17:35:58.961Z,6.40
2018-12-17T17:38:26.504Z,6.40
2018-12-17T17:40:54.265Z,6.20
2018-12-17T17:43:21.952Z,6.50
2018-12-17T17:45:49.709Z,6.40
2018-12-17T17:48:17.430Z,6.10
2018-12-17T17:50:45.098Z,6.10
2018-12-17T17:53:12.770Z,5.70
2018-12-17T17:55:40.497Z,6.20
2018-12-17T17:58:08.211Z,6.40
2018-12-17T18:00:36.021Z,6.40
2018-12-17T18:03:04.674Z,5.70
2018-12-17T18:05:32.853Z,6.20
2018-12-17T18:08:00.529Z,6.30
2018-12-17T18:10:28.197Z,6.30
2018-12-17T18:12:55.909Z,6.40
2018-12-17T18:15:23.658Z,6.30
2018-12-17T18:17:51.356Z,6.30
2018-12-17T18:20:19.098Z,6.20
2018-12-17T18:22:46.765Z,6.20
2018-12-17T18:25:14.473Z,6.20
2018-12-17T18:27:42.177Z,6.30
2018-12-17T18:30:10.030Z,6.30
2018-12-17T18:32:37.674Z,6.30
2018-12-17T18:35:05.469Z,6.10
2018-12-17T18:37:33.226Z,6.10
2018-12-17T18:40:00.880Z,6.10
2018-12-17T18:42:28.597Z,6.20
2018-12-17T18:44:56.289Z,6.50
2018-12-17T18:47:25.829Z,6.20
2018-12-17T18:49:53.585Z,6.30
2018-12-17T18:52:21.272Z,6.30
2018-12-17T18:54:48.972Z,6.30
2018-12-17T18:57:16.673Z,6.10
2018-12-17T18:59:44.329Z,6.10
2018-12-17T19:02:12.163Z,6.00
2018-12-17T19:04:39.861Z,5.90
2018-12-17T19:07:07.561Z,5.80
2018-12-17T19:09:35.601Z,5.90
2018-12-17T19:12:03.326Z,5.80
2018-12-17T19:14:30.996Z,6.10
2018-12-17T19:16:58.682Z,6.10
2018-12-17T19:19:26.333Z,6.00
2018-12-17T19:21:54.057Z,5.90
2018-12-17T19:24:21.657Z,6.00
2018-12-17T19:26:49.397Z,6.00
2018-12-17T19:29:17.193Z,5.90
2018-12-17T19:31:44.882Z,5.70
2018-12-17T19:34:12.577Z,6.10
2018-12-17T19:36:40.870Z,5.80
2018-12-17T19:39:08.533Z,5.90
2018-12-17T19:41:36.142Z,5.90
2018-12-17T19:44:03.977Z,6.20
2018-12-17T19:46:31.705Z,6.20
2018-12-17T19:48:59.397Z,6.10
2018-12-17T19:51:27.101Z,6.00
2018-12-17T19:53:54.720Z,5.90
2018-12-17T19:56:22.478Z,6.00
2018-12-17T19:58:50.189Z,6.10
2018-12-17T20:01:17.913Z,6.30
2018-12-17T20:03:45.598Z,6.20
2018-12-17T20:06:13.383Z,6.10
2018-12-17T20:08:41.072Z,6.00
2018-12-17T20:11:08.918Z,6.30
2018-12-17T20:13:36.706Z,6.10
2018-12-17T20:16:04.665Z,6.20
2018-12-17T20:18:32.401Z,6.30
2018-12-17T20:21:00.099Z,6.40
2018-12-17T20:23:27.841Z,6.30
2018-12-17T20:25:55.559Z,6.00
2018-12-17T20:28:23.187Z,6.30
2018-12-17T20:30:50.837Z,6.10
2018-12-17T20:33:18.478Z,6.30
2018-12-17T20:35:46.179Z,6.30
2018-12-17T20:38:13.909Z,6.40
2018-12-17T20:40:41.532Z,6.40
2018-12-17T20:43:09.193Z,6.20
2018-12-17T20:45:36.931Z,6.30
2018-12-17T20:48:04.922Z,6.30
2018-12-17T20:50:32.843Z,6.40
2018-12-17T20:53:00.517Z,6.20
2018-12-17T20:55:30.777Z,6.30
2018-12-17T20:57:58.903Z,6.30
2018-12-17T21:00:27.150Z,6.00
2018-12-17T21:03:00.281Z,6.10
2018-12-17T21:05:24.533Z,6.10
2018-12-17T21:07:52.281Z,6.40
2018-12-17T21:10:19.909Z,6.40
2018-12-17T21:12:47.648Z,6.30
2018-12-17T21:15:15.544Z,6.20
2018-12-17T21:17:43.500Z,6.20
2018-12-17T21:20:11.122Z,6.10
2018-12-17T21:22:38.839Z,6.20
2018-12-17T21:25:06.763Z,6.10
2018-12-17T21:27:34.556Z,6.10
2018-12-17T21:30:02.373Z,6.20
2018-12-17T21:32:30.484Z,6.00
2018-12-17T21:34:58.173Z,6.00
2018-12-17T21:37:25.757Z,6.40
2018-12-17T21:39:53.807Z,6.20
2018-12-17T21:42:21.662Z,6.10
2018-12-17T21:44:49.303Z,6.30
2018-12-17T21:47:18.182Z,6.30
2018-12-17T21:49:45.757Z,6.20
2018-12-17T21:52:13.422Z,6.50
2018-12-17T21:54:41.039Z,6.40
2018-12-17T21:57:08.689Z,6.50
2018-12-17T21:59:36.318Z,6.50
2018-12-17T22:02:05.171Z,6.30
2018-12-17T22:04:32.877Z,6.50
2018-12-17T22:07:00.613Z,6.70
2018-12-17T22:09:28.357Z,6.30
2018-12-17T22:11:56.065Z,6.60
2018-12-17T22:14:23.758Z,6.50
2018-12-17T22:16:51.410Z,6.30
2018-12-17T22:19:19.330Z,6.60
2018-12-17T22:21:47.045Z,6.30
2018-12-17T22:24:14.745Z,6.50
2018-12-17T22:26:42.517Z,6.30
2018-12-17T22:29:10.441Z,6.60
2018-12-17T22:31:38.626Z,6.50
2018-12-17T22:34:06.345Z,6.30
2018-12-17T22:36:35.771Z,6.40
2018-12-17T22:39:05.805Z,6.60
2018-12-17T22:41:37.321Z,6.20
2018-12-17T22:44:05.021Z,5.80
2018-12-17T22:46:32.855Z,6.60
2018-12-17T22:51:40.743Z,6.40
2018-12-17T22:54:08.513Z,6.30
2018-12-17T22:56:36.269Z,6.60
2018-12-17T22:59:03.926Z,6.00
2018-12-17T23:01:31.622Z,6.50
2018-12-17T23:03:59.328Z,6.20
2018-12-17T23:06:27.008Z,6.20
2018-12-17T23:09:07.133Z,6.40
2018-12-17T23:11:51.653Z,6.30
2018-12-17T23:14:30.619Z,6.40
2018-12-17T23:17:09.782Z,6.60
2018-12-17T23:19:42.530Z,6.50
2018-12-17T23:22:10.909Z,6.30
2018-12-17T23:24:38.801Z,6.40
2018-12-17T23:27:06.750Z,6.20
2018-12-17T23:29:34.854Z,6.40
2018-12-17T23:32:02.545Z,6.60
2018-12-17T23:34:30.101Z,6.50
2018-12-17T23:36:57.804Z,6.30
2018-12-17T23:39:25.528Z,6.60
2018-12-17T23:41:53.289Z,6.40
2018-12-17T23:44:21.005Z,6.50
2018-12-17T23:46:48.680Z,6.50
2018-12-17T23:49:16.306Z,6.70
2018-12-17T23:51:43.995Z,6.60
2018-12-17T23:54:11.701Z,6.80
2018-12-17T23:56:39.477Z,6.80
2018-12-17T23:59:07.821Z,6.50
